sensor_id;sensor_type;location;lat;lon;timestamp;pressure;altitude;pressure_sealevel;temperature;humidity
4586;BME280;2305;50.118;8.952;2023-10-08T00:02:17;101223.06;;;17.85;100.00
4586;BME280;2305;50.118;8.952;2023-10-08T00:04:50;101231.84;;;17.95;100.00
4586;BME280;2305;50.118;8.952;2023-10-08T00:07:18;101232.28;;;17.91;100.00
4586;BME280;2305;50.118;8.952;2023-10-08T00:09:51;101229.72;;;17.99;100.00
4586;BME280;2305;50.118;8.952;2023-10-08T00:12:22;101236.63;;;17.92;100.00
4586;BME280;2305;50.118;8.952;2023-10-08T00:14:51;101231.06;;;17.85;100.00
4586;BME280;2305;50.118;8.952;2023-10-08T00:17:20;101235.50;;;17.94;100.00
4586;BME280;2305;50.118;8.952;2023-10-08T00:19:51;101234.97;;;17.91;100.00
4586;BME280;2305;50.118;8.952;2023-10-08T00:22:20;101238.47;;;17.91;100.00
4586;BME280;2305;50.118;8.952;2023-10-08T00:24:53;101236.25;;;17.87;100.00
4586;BME280;2305;50.118;8.952;2023-10-08T00:27:28;101242.41;;;17.87;100.00
4586;BME280;2305;50.118;8.952;2023-10-08T00:30:08;101236.41;;;17.85;100.00
4586;BME280;2305;50.118;8.952;2023-10-08T00:32:46;101235.56;;;17.85;100.00
4586;BME280;2305;50.118;8.952;2023-10-08T00:35:18;101235.84;;;17.82;100.00
4586;BME280;2305;50.118;8.952;2023-10-08T00:37:47;101231.22;;;17.84;100.00
4586;BME280;2305;50.118;8.952;2023-10-08T00:40:18;101232.50;;;17.80;100.00
4586;BME280;2305;50.118;8.952;2023-10-08T00:42:50;101235.47;;;17.77;100.00
4586;BME280;2305;50.118;8.952;2023-10-08T00:45:24;101225.78;;;17.76;100.00
4586;BME280;2305;50.118;8.952;2023-10-08T00:47:57;101224.13;;;17.75;100.00
4586;BME280;2305;50.118;8.952;2023-10-08T00:50:26;101226.63;;;17.76;100.00
4586;BME280;2305;50.118;8.952;2023-10-08T00:53:10;101225.09;;;17.74;100.00
4586;BME280;2305;50.118;8.952;2023-10-08T00:55:50;101214.44;;;17.74;100.00
4586;BME280;2305;50.118;8.952;2023-10-08T00:58:30;101214.28;;;17.75;100.00
4586;BME280;2305;50.118;8.952;2023-10-08T01:01:02;101218.78;;;17.75;100.00
4586;BME280;2305;50.118;8.952;2023-10-08T01:03:37;101209.94;;;17.74;100.00
4586;BME280;2305;50.118;8.952;2023-10-08T01:06:11;101215.13;;;17.76;100.00
4586;BME280;2305;50.118;8.952;2023-10-08T01:08:46;101207.25;;;17.74;100.00
4586;BME280;2305;50.118;8.952;2023-10-08T01:11:20;101207.44;;;17.73;100.00
4586;BME280;2305;50.118;8.952;2023-10-08T01:14:08;101210.91;;;17.73;100.00
4586;BME280;2305;50.118;8.952;2023-10-08T01:16:40;101204.91;;;17.71;100.00
4586;BME280;2305;50.118;8.952;2023-10-08T01:19:18;101211.78;;;17.74;100.00
4586;BME280;2305;50.118;8.952;2023-10-08T01:21:47;101215.44;;;17.73;100.00
4586;BME280;2305;50.118;8.952;2023-10-08T01:24:19;101219.22;;;17.70;100.00
4586;BME280;2305;50.118;8.952;2023-10-08T01:26:51;101223.72;;;17.70;100.00
4586;BME280;2305;50.118;8.952;2023-10-08T01:29:19;101219.38;;;17.69;100.00
4586;BME280;2305;50.118;8.952;2023-10-08T01:31:51;101225.97;;;17.65;100.00
4586;BME280;2305;50.118;8.952;2023-10-08T01:34:23;101241.28;;;17.63;100.00
4586;BME280;2305;50.118;8.952;2023-10-08T01:37:00;101229.25;;;17.59;100.00
4586;BME280;2305;50.118;8.952;2023-10-08T01:39:37;101233.88;;;17.57;100.00
4586;BME280;2305;50.118;8.952;2023-10-08T01:42:10;101238.81;;;17.52;100.00
4586;BME280;2305;50.118;8.952;2023-10-08T01:44:44;101241.09;;;17.47;100.00
4586;BME280;2305;50.118;8.952;2023-10-08T01:47:17;101234.66;;;17.40;100.00
4586;BME280;2305;50.118;8.952;2023-10-08T01:49:46;101241.97;;;17.38;100.00
4586;BME280;2305;50.118;8.952;2023-10-08T01:52:18;101237.88;;;17.34;100.00
4586;BME280;2305;50.118;8.952;2023-10-08T01:54:52;101233.81;;;17.30;100.00
4586;BME280;2305;50.118;8.952;2023-10-08T01:57:21;101237.47;;;17.29;100.00
4586;BME280;2305;50.118;8.952;2023-10-08T01:59:50;101232.44;;;17.26;100.00
4586;BME280;2305;50.118;8.952;2023-10-08T02:02:20;101232.03;;;17.21;100.00
4586;BME280;2305;50.118;8.952;2023-10-08T02:04:49;101239.19;;;17.20;100.00
4586;BME280;2305;50.118;8.952;2023-10-08T02:07:24;101251.78;;;17.18;100.00
4586;BME280;2305;50.118;8.952;2023-10-08T02:09:57;101256.28;;;17.18;100.00
4586;BME280;2305;50.118;8.952;2023-10-08T02:12:28;101260.78;;;17.17;100.00
4586;BME280;2305;50.118;8.952;2023-10-08T02:14:57;101247.88;;;17.13;100.00
4586;BME280;2305;50.118;8.952;2023-10-08T02:17:27;101238.53;;;17.09;100.00
4586;BME280;2305;50.118;8.952;2023-10-08T02:19:55;101241.59;;;17.04;100.00
4586;BME280;2305;50.118;8.952;2023-10-08T02:22:24;101235.72;;;17.01;100.00
4586;BME280;2305;50.118;8.952;2023-10-08T02:24:52;101233.91;;;17.01;100.00
4586;BME280;2305;50.118;8.952;2023-10-08T02:27:28;101222.94;;;17.04;100.00
4586;BME280;2305;50.118;8.952;2023-10-08T02:30:01;101210.50;;;17.05;100.00
4586;BME280;2305;50.118;8.952;2023-10-08T02:32:35;101206.97;;;17.04;100.00
4586;BME280;2305;50.118;8.952;2023-10-08T02:35:04;101220.69;;;17.09;100.00
4586;BME280;2305;50.118;8.952;2023-10-08T02:37:33;101220.13;;;17.15;100.00
4586;BME280;2305;50.118;8.952;2023-10-08T02:40:03;101218.16;;;17.17;100.00
4586;BME280;2305;50.118;8.952;2023-10-08T02:42:41;101216.19;;;17.19;100.00
4586;BME280;2305;50.118;8.952;2023-10-08T02:45:12;101212.13;;;17.25;100.00
4586;BME280;2305;50.118;8.952;2023-10-08T02:47:43;101206.66;;;17.26;100.00
4586;BME280;2305;50.118;8.952;2023-10-08T02:50:12;101214.09;;;17.23;100.00
4586;BME280;2305;50.118;8.952;2023-10-08T02:52:46;101217.44;;;17.25;100.00
4586;BME280;2305;50.118;8.952;2023-10-08T02:55:19;101229.09;;;17.24;100.00
4586;BME280;2305;50.118;8.952;2023-10-08T02:57:56;101232.44;;;17.26;100.00
4586;BME280;2305;50.118;8.952;2023-10-08T03:00:27;101229.63;;;17.27;100.00
4586;BME280;2305;50.118;8.952;2023-10-08T03:02:57;101238.31;;;17.39;100.00
4586;BME280;2305;50.118;8.952;2023-10-08T03:05:28;101234.94;;;17.37;100.00
4586;BME280;2305;50.118;8.952;2023-10-08T03:08:04;101231.41;;;17.36;100.00
4586;BME280;2305;50.118;8.952;2023-10-08T03:10:38;101220.34;;;17.41;100.00
4586;BME280;2305;50.118;8.952;2023-10-08T03:13:11;101230.41;;;17.47;100.00
4586;BME280;2305;50.118;8.952;2023-10-08T03:15:41;101241.34;;;17.44;100.00
4586;BME280;2305;50.118;8.952;2023-10-08T03:18:26;101244.47;;;17.39;100.00
4586;BME280;2305;50.118;8.952;2023-10-08T03:21:03;101260.72;;;17.36;100.00
4586;BME280;2305;50.118;8.952;2023-10-08T03:23:42;101260.84;;;17.35;100.00
4586;BME280;2305;50.118;8.952;2023-10-08T03:26:14;101259.50;;;17.31;100.00
4586;BME280;2305;50.118;8.952;2023-10-08T03:29:03;101259.63;;;17.29;100.00
4586;BME280;2305;50.118;8.952;2023-10-08T03:31:35;101256.28;;;17.27;100.00
4586;BME280;2305;50.118;8.952;2023-10-08T03:34:19;101272.53;;;17.24;100.00
4586;BME280;2305;50.118;8.952;2023-10-08T03:36:54;101273.81;;;17.20;100.00
4586;BME280;2305;50.118;8.952;2023-10-08T03:39:39;101282.78;;;17.19;100.00
4586;BME280;2305;50.118;8.952;2023-10-08T03:42:22;101283.19;;;17.15;100.00
4586;BME280;2305;50.118;8.952;2023-10-08T03:44:52;101285.19;;;17.13;100.00
4586;BME280;2305;50.118;8.952;2023-10-08T03:47:24;101285.75;;;17.07;100.00
4586;BME280;2305;50.118;8.952;2023-10-08T03:49:55;101278.50;;;16.99;100.00
4586;BME280;2305;50.118;8.952;2023-10-08T03:52:23;101282.84;;;16.91;100.00
4586;BME280;2305;50.118;8.952;2023-10-08T03:54:53;101278.75;;;16.87;100.00
4586;BME280;2305;50.118;8.952;2023-10-08T03:57:32;101279.34;;;16.81;100.00
4586;BME280;2305;50.118;8.952;2023-10-08T04:00:20;101280.47;;;16.78;100.00
4586;BME280;2305;50.118;8.952;2023-10-08T04:02:56;101280.31;;;16.80;100.00
4586;BME280;2305;50.118;8.952;2023-10-08T04:05:28;101268.97;;;16.78;100.00
4586;BME280;2305;50.118;8.952;2023-10-08T04:08:11;101272.31;;;16.80;100.00
4586;BME280;2305;50.118;8.952;2023-10-08T04:10:52;101263.22;;;16.82;100.00
4586;BME280;2305;50.118;8.952;2023-10-08T04:13:49;101268.41;;;16.84;100.00
4586;BME280;2305;50.118;8.952;2023-10-08T04:16:20;101266.44;;;16.86;100.00
4586;BME280;2305;50.118;8.952;2023-10-08T04:18:48;101265.31;;;16.88;100.00
4586;BME280;2305;50.118;8.952;2023-10-08T04:21:22;101259.84;;;16.90;100.00
4586;BME280;2305;50.118;8.952;2023-10-08T04:23:56;101253.84;;;16.88;100.00
4586;BME280;2305;50.118;8.952;2023-10-08T04:26:30;101243.19;;;16.88;100.00
4586;BME280;2305;50.118;8.952;2023-10-08T04:29:01;101232.94;;;16.93;100.00
4586;BME280;2305;50.118;8.952;2023-10-08T04:31:32;101221.56;;;17.00;100.00
4586;BME280;2305;50.118;8.952;2023-10-08T04:34:12;101228.81;;;17.08;100.00
4586;BME280;2305;50.118;8.952;2023-10-08T04:36:43;101237.09;;;17.14;100.00
4586;BME280;2305;50.118;8.952;2023-10-08T04:39:14;101244.81;;;17.08;100.00
4586;BME280;2305;50.118;8.952;2023-10-08T04:41:48;101239.94;;;16.94;100.00
4586;BME280;2305;50.118;8.952;2023-10-08T04:44:21;101245.00;;;16.97;100.00
4586;BME280;2305;50.118;8.952;2023-10-08T04:46:54;101255.53;;;16.89;100.00
4586;BME280;2305;50.118;8.952;2023-10-08T04:49:22;101252.13;;;16.87;100.00
4586;BME280;2305;50.118;8.952;2023-10-08T04:52:03;101246.81;;;16.87;100.00
4586;BME280;2305;50.118;8.952;2023-10-08T04:54:42;101251.19;;;16.88;100.00
4586;BME280;2305;50.118;8.952;2023-10-08T04:57:18;101257.19;;;16.90;100.00
4586;BME280;2305;50.118;8.952;2023-10-08T04:59:49;101259.16;;;16.88;100.00
4586;BME280;2305;50.118;8.952;2023-10-08T05:02:22;101270.38;;;16.91;100.00
4586;BME280;2305;50.118;8.952;2023-10-08T05:05:01;101264.50;;;16.88;100.00
4586;BME280;2305;50.118;8.952;2023-10-08T05:07:49;101260.28;;;16.85;100.00
4586;BME280;2305;50.118;8.952;2023-10-08T05:10:34;101262.09;;;16.85;100.00
4586;BME280;2305;50.118;8.952;2023-10-08T05:13:21;101262.22;;;16.83;100.00
4586;BME280;2305;50.118;8.952;2023-10-08T05:15:57;101254.53;;;16.90;100.00
4586;BME280;2305;50.118;8.952;2023-10-08T05:18:58;101252.13;;;16.96;100.00
4586;BME280;2305;50.118;8.952;2023-10-08T05:21:52;101260.13;;;16.87;100.00
4586;BME280;2305;50.118;8.952;2023-10-08T05:24:35;101271.75;;;16.86;100.00
4586;BME280;2305;50.118;8.952;2023-10-08T05:27:06;101272.88;;;16.83;100.00
4586;BME280;2305;50.118;8.952;2023-10-08T05:29:54;101261.41;;;16.83;100.00
4586;BME280;2305;50.118;8.952;2023-10-08T05:32:36;101251.88;;;16.80;100.00
4586;BME280;2305;50.118;8.952;2023-10-08T05:35:36;101231.69;;;16.78;100.00
4586;BME280;2305;50.118;8.952;2023-10-08T05:38:20;101260.28;;;16.95;100.00
4586;BME280;2305;50.118;8.952;2023-10-08T05:41:06;101264.75;;;16.85;100.00
4586;BME280;2305;50.118;8.952;2023-10-08T05:43:58;101261.66;;;16.80;100.00
4586;BME280;2305;50.118;8.952;2023-10-08T05:46:53;101255.66;;;16.78;100.00
4586;BME280;2305;50.118;8.952;2023-10-08T05:49:45;101240.25;;;16.72;100.00
4586;BME280;2305;50.118;8.952;2023-10-08T05:52:48;101243.63;;;16.74;100.00
4586;BME280;2305;50.118;8.952;2023-10-08T05:55:20;101241.38;;;16.79;100.00
4586;BME280;2305;50.118;8.952;2023-10-08T05:57:54;101249.34;;;16.79;100.00
4586;BME280;2305;50.118;8.952;2023-10-08T06:00:41;101247.81;;;16.76;100.00
4586;BME280;2305;50.118;8.952;2023-10-08T06:03:44;101239.25;;;16.82;100.00
4586;BME280;2305;50.118;8.952;2023-10-08T06:06:31;101233.22;;;16.90;100.00
4586;BME280;2305;50.118;8.952;2023-10-08T06:09:17;101273.59;;;16.85;100.00
4586;BME280;2305;50.118;8.952;2023-10-08T06:12:05;101294.19;;;16.83;100.00
4586;BME280;2305;50.118;8.952;2023-10-08T06:14:40;101293.91;;;16.86;100.00
4586;BME280;2305;50.118;8.952;2023-10-08T06:17:25;101301.91;;;16.86;100.00
4586;BME280;2305;50.118;8.952;2023-10-08T06:20:29;101311.28;;;16.90;100.00
4586;BME280;2305;50.118;8.952;2023-10-08T06:23:01;101335.78;;;16.94;100.00
4586;BME280;2305;50.118;8.952;2023-10-08T06:25:34;101317.72;;;16.97;100.00
4586;BME280;2305;50.118;8.952;2023-10-08T06:28:15;101326.97;;;17.03;100.00
4586;BME280;2305;50.118;8.952;2023-10-08T06:30:54;101324.88;;;17.06;100.00
4586;BME280;2305;50.118;8.952;2023-10-08T06:33:33;101330.75;;;17.10;100.00
4586;BME280;2305;50.118;8.952;2023-10-08T06:36:06;101328.47;;;17.15;100.00
4586;BME280;2305;50.118;8.952;2023-10-08T06:38:41;101330.03;;;17.17;100.00
4586;BME280;2305;50.118;8.952;2023-10-08T06:41:13;101334.38;;;17.18;100.00
4586;BME280;2305;50.118;8.952;2023-10-08T06:44:04;101349.09;;;17.22;100.00
4586;BME280;2305;50.118;8.952;2023-10-08T06:46:33;101340.38;;;17.30;100.00
4586;BME280;2305;50.118;8.952;2023-10-08T06:49:03;101348.53;;;17.28;100.00
4586;BME280;2305;50.118;8.952;2023-10-08T06:51:37;101342.09;;;17.31;100.00
4586;BME280;2305;50.118;8.952;2023-10-08T06:54:07;101311.25;;;17.38;100.00
4586;BME280;2305;50.118;8.952;2023-10-08T06:56:40;101331.56;;;17.39;100.00
4586;BME280;2305;50.118;8.952;2023-10-08T06:59:12;101347.69;;;17.47;100.00
4586;BME280;2305;50.118;8.952;2023-10-08T07:01:40;101362.97;;;17.45;100.00
4586;BME280;2305;50.118;8.952;2023-10-08T07:04:14;101371.66;;;17.47;100.00
4586;BME280;2305;50.118;8.952;2023-10-08T07:06:46;101366.03;;;17.50;100.00
4586;BME280;2305;50.118;8.952;2023-10-08T07:09:15;101362.13;;;17.54;100.00
4586;BME280;2305;50.118;8.952;2023-10-08T07:11:57;101373.75;;;17.62;100.00
4586;BME280;2305;50.118;8.952;2023-10-08T07:14:26;101395.06;;;17.62;100.00
4586;BME280;2305;50.118;8.952;2023-10-08T07:16:56;101386.09;;;17.63;100.00
4586;BME280;2305;50.118;8.952;2023-10-08T07:19:26;101398.97;;;17.68;100.00
4586;BME280;2305;50.118;8.952;2023-10-08T07:22:03;101396.00;;;17.71;100.00
4586;BME280;2305;50.118;8.952;2023-10-08T07:24:35;101397.28;;;17.76;100.00
4586;BME280;2305;50.118;8.952;2023-10-08T07:27:06;101383.66;;;17.79;100.00
4586;BME280;2305;50.118;8.952;2023-10-08T07:29:36;101376.50;;;17.80;100.00
4586;BME280;2305;50.118;8.952;2023-10-08T07:32:04;101381.22;;;17.86;100.00
4586;BME280;2305;50.118;8.952;2023-10-08T07:34:37;101394.81;;;18.02;100.00
4586;BME280;2305;50.118;8.952;2023-10-08T07:37:07;101378.66;;;17.94;100.00
4586;BME280;2305;50.118;8.952;2023-10-08T07:39:39;101364.66;;;17.92;100.00
4586;BME280;2305;50.118;8.952;2023-10-08T07:42:14;101357.09;;;17.87;100.00
4586;BME280;2305;50.118;8.952;2023-10-08T07:44:44;101354.06;;;18.00;100.00
4586;BME280;2305;50.118;8.952;2023-10-08T07:47:17;101361.03;;;18.10;100.00
4586;BME280;2305;50.118;8.952;2023-10-08T07:49:50;101357.66;;;18.18;100.00
4586;BME280;2305;50.118;8.952;2023-10-08T07:52:22;101353.00;;;18.20;100.00
4586;BME280;2305;50.118;8.952;2023-10-08T07:54:50;101342.91;;;18.14;100.00
4586;BME280;2305;50.118;8.952;2023-10-08T07:57:20;101323.88;;;18.09;100.00
4586;BME280;2305;50.118;8.952;2023-10-08T07:59:53;101329.44;;;18.15;100.00
4586;BME280;2305;50.118;8.952;2023-10-08T08:02:43;101359.78;;;18.14;100.00
4586;BME280;2305;50.118;8.952;2023-10-08T08:05:14;101359.47;;;18.17;100.00
4586;BME280;2305;50.118;8.952;2023-10-08T08:07:47;101369.00;;;18.20;100.00
4586;BME280;2305;50.118;8.952;2023-10-08T08:10:17;101359.28;;;18.28;100.00
4586;BME280;2305;50.118;8.952;2023-10-08T08:12:48;101372.22;;;18.33;100.00
4586;BME280;2305;50.118;8.952;2023-10-08T08:15:24;101365.75;;;18.35;100.00
4586;BME280;2305;50.118;8.952;2023-10-08T08:17:56;101363.88;;;18.36;100.00
4586;BME280;2305;50.118;8.952;2023-10-08T08:20:27;101370.94;;;18.37;100.00
4586;BME280;2305;50.118;8.952;2023-10-08T08:23:07;101373.16;;;18.41;100.00
4586;BME280;2305;50.118;8.952;2023-10-08T08:25:37;101367.34;;;18.46;100.00
4586;BME280;2305;50.118;8.952;2023-10-08T08:28:12;101380.41;;;18.49;100.00
4586;BME280;2305;50.118;8.952;2023-10-08T08:30:47;101388.81;;;18.54;100.00
4586;BME280;2305;50.118;8.952;2023-10-08T08:33:19;101385.13;;;18.55;100.00
4586;BME280;2305;50.118;8.952;2023-10-08T08:35:59;101394.47;;;18.68;100.00
4586;BME280;2305;50.118;8.952;2023-10-08T08:38:29;101397.59;;;18.64;100.00
4586;BME280;2305;50.118;8.952;2023-10-08T08:41:03;101401.25;;;18.63;100.00
4586;BME280;2305;50.118;8.952;2023-10-08T08:43:43;101398.28;;;18.66;100.00
4586;BME280;2305;50.118;8.952;2023-10-08T08:46:15;101403.00;;;18.72;100.00
4586;BME280;2305;50.118;8.952;2023-10-08T08:48:44;101402.59;;;18.76;100.00
4586;BME280;2305;50.118;8.952;2023-10-08T08:51:15;101408.06;;;18.75;100.00
4586;BME280;2305;50.118;8.952;2023-10-08T08:53:45;101439.34;;;18.82;100.00
4586;BME280;2305;50.118;8.952;2023-10-08T08:56:13;101429.06;;;18.87;100.00
4586;BME280;2305;50.118;8.952;2023-10-08T08:58:44;101432.13;;;18.92;100.00
4586;BME280;2305;50.118;8.952;2023-10-08T09:01:16;101422.44;;;19.08;100.00
4586;BME280;2305;50.118;8.952;2023-10-08T09:03:45;101423.06;;;19.20;100.00
4586;BME280;2305;50.118;8.952;2023-10-08T09:06:15;101429.16;;;19.30;100.00
4586;BME280;2305;50.118;8.952;2023-10-08T09:08:46;101425.88;;;19.36;100.00
4586;BME280;2305;50.118;8.952;2023-10-08T09:11:16;101440.47;;;19.41;100.00
4586;BME280;2305;50.118;8.952;2023-10-08T09:13:44;101441.31;;;19.42;100.00
4586;BME280;2305;50.118;8.952;2023-10-08T09:16:17;101458.72;;;19.46;100.00
4586;BME280;2305;50.118;8.952;2023-10-08T09:18:47;101474.84;;;19.54;100.00
4586;BME280;2305;50.118;8.952;2023-10-08T09:21:19;101458.81;;;19.54;100.00
4586;BME280;2305;50.118;8.952;2023-10-08T09:23:51;101452.38;;;19.64;100.00
4586;BME280;2305;50.118;8.952;2023-10-08T09:26:24;101447.56;;;19.68;100.00
4586;BME280;2305;50.118;8.952;2023-10-08T09:28:52;101454.63;;;19.77;100.00
4586;BME280;2305;50.118;8.952;2023-10-08T09:31:22;101439.25;;;19.79;100.00
4586;BME280;2305;50.118;8.952;2023-10-08T09:33:54;101435.81;;;19.86;100.00
4586;BME280;2305;50.118;8.952;2023-10-08T09:36:23;101426.97;;;19.94;100.00
4586;BME280;2305;50.118;8.952;2023-10-08T09:39:02;101437.47;;;20.05;100.00
4586;BME280;2305;50.118;8.952;2023-10-08T09:41:34;101446.34;;;20.13;100.00
4586;BME280;2305;50.118;8.952;2023-10-08T09:44:07;101442.84;;;20.13;100.00
4586;BME280;2305;50.118;8.952;2023-10-08T09:46:40;101446.16;;;20.07;100.00
4586;BME280;2305;50.118;8.952;2023-10-08T09:49:13;101433.38;;;20.01;100.00
4586;BME280;2305;50.118;8.952;2023-10-08T09:51:46;101426.31;;;19.92;100.00
4586;BME280;2305;50.118;8.952;2023-10-08T09:54:23;101425.31;;;19.93;100.00
4586;BME280;2305;50.118;8.952;2023-10-08T09:56:53;101422.13;;;20.15;100.00
4586;BME280;2305;50.118;8.952;2023-10-08T09:59:27;101425.84;;;20.30;100.00
4586;BME280;2305;50.118;8.952;2023-10-08T10:01:59;101423.56;;;20.43;100.00
4586;BME280;2305;50.118;8.952;2023-10-08T10:04:30;101417.97;;;20.62;100.00
4586;BME280;2305;50.118;8.952;2023-10-08T10:07:08;101440.75;;;20.74;100.00
4586;BME280;2305;50.118;8.952;2023-10-08T10:09:42;101436.88;;;20.60;100.00
4586;BME280;2305;50.118;8.952;2023-10-08T10:12:11;101434.97;;;20.45;100.00
4586;BME280;2305;50.118;8.952;2023-10-08T10:14:41;101420.53;;;20.38;100.00
4586;BME280;2305;50.118;8.952;2023-10-08T10:17:13;101423.03;;;20.31;100.00
4586;BME280;2305;50.118;8.952;2023-10-08T10:20:04;101439.88;;;20.24;100.00
4586;BME280;2305;50.118;8.952;2023-10-08T10:22:37;101439.53;;;20.19;100.00
4586;BME280;2305;50.118;8.952;2023-10-08T10:25:07;101451.25;;;20.18;100.00
4586;BME280;2305;50.118;8.952;2023-10-08T10:28:23;101447.09;;;20.23;100.00
4586;BME280;2305;50.118;8.952;2023-10-08T10:30:52;101442.16;;;20.36;100.00
4586;BME280;2305;50.118;8.952;2023-10-08T10:33:20;101439.03;;;20.57;100.00
4586;BME280;2305;50.118;8.952;2023-10-08T10:35:52;101448.47;;;20.69;100.00
4586;BME280;2305;50.118;8.952;2023-10-08T10:38:21;101447.81;;;20.75;100.00
4586;BME280;2305;50.118;8.952;2023-10-08T10:40:55;101454.00;;;20.75;100.00
4586;BME280;2305;50.118;8.952;2023-10-08T10:43:26;101462.69;;;20.69;100.00
4586;BME280;2305;50.118;8.952;2023-10-08T10:46:00;101466.84;;;20.64;100.00
4586;BME280;2305;50.118;8.952;2023-10-08T10:48:51;101469.72;;;20.70;100.00
4586;BME280;2305;50.118;8.952;2023-10-08T10:51:30;101476.47;;;20.82;100.00
4586;BME280;2305;50.118;8.952;2023-10-08T10:54:00;101480.88;;;20.91;100.00
4586;BME280;2305;50.118;8.952;2023-10-08T10:56:38;101481.25;;;21.04;100.00
4586;BME280;2305;50.118;8.952;2023-10-08T10:59:12;101474.06;;;21.21;100.00
4586;BME280;2305;50.118;8.952;2023-10-08T11:01:46;101471.25;;;21.30;100.00
4586;BME280;2305;50.118;8.952;2023-10-08T11:04:19;101475.59;;;21.31;100.00
4586;BME280;2305;50.118;8.952;2023-10-08T11:06:57;101485.50;;;21.39;100.00
4586;BME280;2305;50.118;8.952;2023-10-08T11:09:29;101483.50;;;21.49;100.00
4586;BME280;2305;50.118;8.952;2023-10-08T11:12:09;101477.47;;;21.55;100.00
4586;BME280;2305;50.118;8.952;2023-10-08T11:14:39;101473.09;;;21.62;100.00
4586;BME280;2305;50.118;8.952;2023-10-08T11:17:13;101473.28;;;21.68;100.00
4586;BME280;2305;50.118;8.952;2023-10-08T11:19:42;101482.84;;;21.71;100.00
4586;BME280;2305;50.118;8.952;2023-10-08T11:22:13;101480.69;;;21.74;100.00
4586;BME280;2305;50.118;8.952;2023-10-08T11:24:46;101474.78;;;21.79;100.00
4586;BME280;2305;50.118;8.952;2023-10-08T11:27:18;101469.28;;;21.80;100.00
4586;BME280;2305;50.118;8.952;2023-10-08T11:29:56;101459.19;;;21.82;100.00
4586;BME280;2305;50.118;8.952;2023-10-08T11:32:29;101461.72;;;21.84;100.00
4586;BME280;2305;50.118;8.952;2023-10-08T11:35:00;101457.16;;;21.84;100.00
4586;BME280;2305;50.118;8.952;2023-10-08T11:37:45;101447.81;;;21.80;100.00
4586;BME280;2305;50.118;8.952;2023-10-08T11:40:22;101446.78;;;21.81;100.00
4586;BME280;2305;50.118;8.952;2023-10-08T11:42:58;101443.09;;;21.82;100.00
4586;BME280;2305;50.118;8.952;2023-10-08T11:45:26;101443.94;;;21.91;100.00
4586;BME280;2305;50.118;8.952;2023-10-08T11:47:57;101443.94;;;21.83;100.00
4586;BME280;2305;50.118;8.952;2023-10-08T11:50:30;101434.53;;;21.87;100.00
4586;BME280;2305;50.118;8.952;2023-10-08T11:52:59;101435.34;;;22.03;100.00
4586;BME280;2305;50.118;8.952;2023-10-08T11:55:33;101425.13;;;21.99;100.00
4586;BME280;2305;50.118;8.952;2023-10-08T11:58:05;101418.91;;;22.06;100.00
4586;BME280;2305;50.118;8.952;2023-10-08T12:00:38;101425.94;;;22.07;100.00
4586;BME280;2305;50.118;8.952;2023-10-08T12:03:12;101430.81;;;22.04;100.00
4586;BME280;2305;50.118;8.952;2023-10-08T12:05:45;101426.63;;;22.01;100.00
4586;BME280;2305;50.118;8.952;2023-10-08T12:08:17;101425.28;;;21.97;100.00
4586;BME280;2305;50.118;8.952;2023-10-08T12:10:48;101430.66;;;21.97;100.00
4586;BME280;2305;50.118;8.952;2023-10-08T12:13:22;101421.28;;;21.85;100.00
4586;BME280;2305;50.118;8.952;2023-10-08T12:15:53;101435.38;;;21.87;100.00
4586;BME280;2305;50.118;8.952;2023-10-08T12:18:32;101429.16;;;21.87;100.00
4586;BME280;2305;50.118;8.952;2023-10-08T12:21:07;101431.00;;;21.94;100.00
4586;BME280;2305;50.118;8.952;2023-10-08T12:23:37;101434.81;;;22.08;100.00
4586;BME280;2305;50.118;8.952;2023-10-08T12:26:06;101429.78;;;22.13;100.00
4586;BME280;2305;50.118;8.952;2023-10-08T12:28:36;101434.28;;;22.20;100.00
4586;BME280;2305;50.118;8.952;2023-10-08T12:31:04;101435.25;;;22.35;100.00
4586;BME280;2305;50.118;8.952;2023-10-08T12:33:32;101431.19;;;22.47;100.00
4586;BME280;2305;50.118;8.952;2023-10-08T12:36:01;101428.97;;;22.51;100.00
4586;BME280;2305;50.118;8.952;2023-10-08T12:38:39;101422.59;;;22.60;100.00
4586;BME280;2305;50.118;8.952;2023-10-08T12:41:09;101424.03;;;22.70;100.00
4586;BME280;2305;50.118;8.952;2023-10-08T12:43:42;101421.91;;;22.88;100.00
4586;BME280;2305;50.118;8.952;2023-10-08T12:46:12;101428.28;;;22.87;100.00
4586;BME280;2305;50.118;8.952;2023-10-08T12:48:52;101435.59;;;22.71;100.00
4586;BME280;2305;50.118;8.952;2023-10-08T12:51:24;101437.69;;;22.61;100.00
4586;BME280;2305;50.118;8.952;2023-10-08T12:53:52;101433.66;;;22.57;100.00
4586;BME280;2305;50.118;8.952;2023-10-08T12:56:30;101431.00;;;22.49;100.00
4586;BME280;2305;50.118;8.952;2023-10-08T12:59:14;101433.53;;;22.50;100.00
4586;BME280;2305;50.118;8.952;2023-10-08T13:01:49;101423.06;;;22.55;100.00
4586;BME280;2305;50.118;8.952;2023-10-08T13:04:22;101418.19;;;22.67;100.00
4586;BME280;2305;50.118;8.952;2023-10-08T13:06:57;101419.63;;;22.77;100.00
4586;BME280;2305;50.118;8.952;2023-10-08T13:09:29;101407.88;;;22.78;100.00
4586;BME280;2305;50.118;8.952;2023-10-08T13:11:59;101418.78;;;22.77;100.00
4586;BME280;2305;50.118;8.952;2023-10-08T13:14:31;101413.28;;;22.70;100.00
4586;BME280;2305;50.118;8.952;2023-10-08T13:17:04;101409.91;;;22.68;100.00
4586;BME280;2305;50.118;8.952;2023-10-08T13:19:37;101396.78;;;22.73;100.00
4586;BME280;2305;50.118;8.952;2023-10-08T13:22:05;101396.22;;;22.86;100.00
4586;BME280;2305;50.118;8.952;2023-10-08T13:24:36;101394.31;;;22.94;100.00
4586;BME280;2305;50.118;8.952;2023-10-08T13:27:08;101391.19;;;23.05;100.00
4586;BME280;2305;50.118;8.952;2023-10-08T13:29:37;101391.84;;;23.15;100.00
4586;BME280;2305;50.118;8.952;2023-10-08T13:32:05;101388.53;;;23.28;100.00
4586;BME280;2305;50.118;8.952;2023-10-08T13:34:34;101384.75;;;23.37;100.00
4586;BME280;2305;50.118;8.952;2023-10-08T13:37:02;101381.72;;;23.40;100.00
4586;BME280;2305;50.118;8.952;2023-10-08T13:39:30;101385.28;;;23.32;100.00